sensor_id;sensor_type;location;lat;lon;timestamp;P1;durP1;ratioP1;P2;durP2;ratioP2
55114;SDS011;41010;53.252;5.786;2024-03-08T00:02:24;25.95;;;13.30;;
55114;SDS011;41010;53.252;5.786;2024-03-08T00:04:51;25.88;;;13.15;;
55114;SDS011;41010;53.252;5.786;2024-03-08T00:07:18;28.08;;;12.65;;
55114;SDS011;41010;53.252;5.786;2024-03-08T00:09:46;28.15;;;12.65;;
55114;SDS011;41010;53.252;5.786;2024-03-08T00:12:13;31.85;;;14.07;;
55114;SDS011;41010;53.252;5.786;2024-03-08T00:14:42;27.75;;;13.00;;
55114;SDS011;41010;53.252;5.786;2024-03-08T00:17:10;28.48;;;13.52;;
55114;SDS011;41010;53.252;5.786;2024-03-08T00:19:37;30.13;;;13.68;;
55114;SDS011;41010;53.252;5.786;2024-03-08T00:22:06;31.98;;;13.88;;
55114;SDS011;41010;53.252;5.786;2024-03-08T00:24:35;29.63;;;13.15;;
55114;SDS011;41010;53.252;5.786;2024-03-08T00:27:02;32.42;;;13.30;;
55114;SDS011;41010;53.252;5.786;2024-03-08T00:29:31;31.00;;;13.88;;
55114;SDS011;41010;53.252;5.786;2024-03-08T00:32:00;30.45;;;13.38;;
55114;SDS011;41010;53.252;5.786;2024-03-08T00:34:28;29.77;;;14.38;;
55114;SDS011;41010;53.252;5.786;2024-03-08T00:36:55;31.73;;;14.05;;
55114;SDS011;41010;53.252;5.786;2024-03-08T00:39:23;33.55;;;14.70;;
55114;SDS011;41010;53.252;5.786;2024-03-08T00:41:50;32.50;;;15.48;;
55114;SDS011;41010;53.252;5.786;2024-03-08T00:44:18;31.40;;;13.88;;
55114;SDS011;41010;53.252;5.786;2024-03-08T00:46:45;32.45;;;14.57;;
55114;SDS011;41010;53.252;5.786;2024-03-08T00:49:14;31.48;;;14.80;;
55114;SDS011;41010;53.252;5.786;2024-03-08T00:51:42;30.38;;;13.90;;
55114;SDS011;41010;53.252;5.786;2024-03-08T00:54:09;30.05;;;14.45;;
55114;SDS011;41010;53.252;5.786;2024-03-08T00:56:37;28.40;;;13.85;;
55114;SDS011;41010;53.252;5.786;2024-03-08T00:59:04;34.15;;;15.13;;
55114;SDS011;41010;53.252;5.786;2024-03-08T01:01:31;32.83;;;14.63;;
55114;SDS011;41010;53.252;5.786;2024-03-08T01:03:59;34.42;;;15.23;;
55114;SDS011;41010;53.252;5.786;2024-03-08T01:06:27;35.97;;;14.30;;
55114;SDS011;41010;53.252;5.786;2024-03-08T01:08:55;32.17;;;15.57;;
55114;SDS011;41010;53.252;5.786;2024-03-08T01:11:22;39.38;;;16.23;;
55114;SDS011;41010;53.252;5.786;2024-03-08T01:13:50;35.88;;;16.65;;
55114;SDS011;41010;53.252;5.786;2024-03-08T01:16:18;32.83;;;16.13;;
55114;SDS011;41010;53.252;5.786;2024-03-08T01:18:46;37.58;;;16.13;;
55114;SDS011;41010;53.252;5.786;2024-03-08T01:21:14;39.58;;;17.30;;
55114;SDS011;41010;53.252;5.786;2024-03-08T01:23:42;34.33;;;15.93;;
55114;SDS011;41010;53.252;5.786;2024-03-08T01:26:09;37.58;;;16.80;;
55114;SDS011;41010;53.252;5.786;2024-03-08T01:28:37;39.70;;;17.48;;
55114;SDS011;41010;53.252;5.786;2024-03-08T01:31:04;40.55;;;17.90;;
55114;SDS011;41010;53.252;5.786;2024-03-08T01:33:31;37.70;;;17.80;;
55114;SDS011;41010;53.252;5.786;2024-03-08T01:35:59;39.88;;;17.65;;
55114;SDS011;41010;53.252;5.786;2024-03-08T01:38:26;44.75;;;19.58;;
55114;SDS011;41010;53.252;5.786;2024-03-08T01:40:55;43.08;;;18.67;;
55114;SDS011;41010;53.252;5.786;2024-03-08T01:43:22;39.35;;;18.30;;
55114;SDS011;41010;53.252;5.786;2024-03-08T01:45:52;44.78;;;19.73;;
55114;SDS011;41010;53.252;5.786;2024-03-08T01:48:19;45.33;;;19.20;;
55114;SDS011;41010;53.252;5.786;2024-03-08T01:50:49;45.58;;;19.00;;
55114;SDS011;41010;53.252;5.786;2024-03-08T01:53:16;41.83;;;19.27;;
55114;SDS011;41010;53.252;5.786;2024-03-08T01:55:45;45.28;;;19.27;;
55114;SDS011;41010;53.252;5.786;2024-03-08T01:58:15;44.40;;;19.83;;
55114;SDS011;41010;53.252;5.786;2024-03-08T02:00:43;47.17;;;19.85;;
55114;SDS011;41010;53.252;5.786;2024-03-08T02:03:11;47.22;;;19.45;;
55114;SDS011;41010;53.252;5.786;2024-03-08T02:05:38;42.28;;;19.88;;
55114;SDS011;41010;53.252;5.786;2024-03-08T02:08:07;48.03;;;19.83;;
55114;SDS011;41010;53.252;5.786;2024-03-08T02:10:37;48.00;;;21.30;;
55114;SDS011;41010;53.252;5.786;2024-03-08T02:13:05;41.42;;;19.50;;
55114;SDS011;41010;53.252;5.786;2024-03-08T02:18:16;50.85;;;19.92;;
55114;SDS011;41010;53.252;5.786;2024-03-08T02:20:45;48.50;;;20.63;;
55114;SDS011;41010;53.252;5.786;2024-03-08T02:23:12;47.85;;;21.42;;
55114;SDS011;41010;53.252;5.786;2024-03-08T02:25:41;49.22;;;20.92;;
55114;SDS011;41010;53.252;5.786;2024-03-08T02:28:09;49.17;;;20.45;;
55114;SDS011;41010;53.252;5.786;2024-03-08T02:30:36;49.10;;;20.92;;
55114;SDS011;41010;53.252;5.786;2024-03-08T02:33:04;55.47;;;21.52;;
55114;SDS011;41010;53.252;5.786;2024-03-08T02:35:31;58.17;;;22.13;;
55114;SDS011;41010;53.252;5.786;2024-03-08T02:38:00;50.55;;;21.25;;
55114;SDS011;41010;53.252;5.786;2024-03-08T02:40:28;59.78;;;22.27;;
55114;SDS011;41010;53.252;5.786;2024-03-08T02:42:56;52.88;;;21.40;;
55114;SDS011;41010;53.252;5.786;2024-03-08T02:45:23;50.55;;;22.27;;
55114;SDS011;41010;53.252;5.786;2024-03-08T02:47:51;56.35;;;21.95;;
55114;SDS011;41010;53.252;5.786;2024-03-08T02:50:18;54.30;;;22.42;;
55114;SDS011;41010;53.252;5.786;2024-03-08T02:52:47;56.90;;;22.35;;
55114;SDS011;41010;53.252;5.786;2024-03-08T02:55:16;52.72;;;21.95;;
55114;SDS011;41010;53.252;5.786;2024-03-08T02:57:43;56.35;;;22.45;;
55114;SDS011;41010;53.252;5.786;2024-03-08T03:00:12;57.00;;;21.55;;
55114;SDS011;41010;53.252;5.786;2024-03-08T03:02:41;50.35;;;22.42;;
55114;SDS011;41010;53.252;5.786;2024-03-08T03:05:08;50.65;;;21.17;;
55114;SDS011;41010;53.252;5.786;2024-03-08T03:07:36;57.30;;;21.70;;
55114;SDS011;41010;53.252;5.786;2024-03-08T03:10:04;47.85;;;21.20;;
55114;SDS011;41010;53.252;5.786;2024-03-08T03:12:33;54.47;;;22.38;;
55114;SDS011;41010;53.252;5.786;2024-03-08T03:15:00;52.45;;;21.30;;
55114;SDS011;41010;53.252;5.786;2024-03-08T03:17:28;52.75;;;21.33;;
55114;SDS011;41010;53.252;5.786;2024-03-08T03:19:55;51.53;;;21.98;;
55114;SDS011;41010;53.252;5.786;2024-03-08T03:22:22;50.33;;;21.63;;
55114;SDS011;41010;53.252;5.786;2024-03-08T03:24:50;51.45;;;22.48;;
55114;SDS011;41010;53.252;5.786;2024-03-08T03:27:18;51.45;;;21.55;;
55114;SDS011;41010;53.252;5.786;2024-03-08T03:29:47;49.35;;;21.20;;
55114;SDS011;41010;53.252;5.786;2024-03-08T03:32:14;52.90;;;21.63;;
55114;SDS011;41010;53.252;5.786;2024-03-08T03:34:43;54.28;;;20.83;;
55114;SDS011;41010;53.252;5.786;2024-03-08T03:37:11;45.92;;;20.27;;
55114;SDS011;41010;53.252;5.786;2024-03-08T03:39:38;48.05;;;20.75;;
55114;SDS011;41010;53.252;5.786;2024-03-08T03:42:13;54.63;;;21.88;;
55114;SDS011;41010;53.252;5.786;2024-03-08T03:44:41;48.25;;;19.80;;
55114;SDS011;41010;53.252;5.786;2024-03-08T03:47:11;51.60;;;21.75;;
55114;SDS011;41010;53.252;5.786;2024-03-08T03:49:38;49.50;;;20.58;;
55114;SDS011;41010;53.252;5.786;2024-03-08T03:52:05;44.67;;;19.60;;
55114;SDS011;41010;53.252;5.786;2024-03-08T03:54:33;52.10;;;21.05;;
55114;SDS011;41010;53.252;5.786;2024-03-08T03:57:00;45.58;;;19.65;;
55114;SDS011;41010;53.252;5.786;2024-03-08T03:59:28;47.05;;;19.67;;
55114;SDS011;41010;53.252;5.786;2024-03-08T04:01:55;44.50;;;19.90;;
55114;SDS011;41010;53.252;5.786;2024-03-08T04:04:24;45.60;;;19.20;;
55114;SDS011;41010;53.252;5.786;2024-03-08T04:06:51;44.63;;;19.10;;
55114;SDS011;41010;53.252;5.786;2024-03-08T04:09:18;43.08;;;19.63;;
55114;SDS011;41010;53.252;5.786;2024-03-08T04:11:47;48.97;;;19.55;;
55114;SDS011;41010;53.252;5.786;2024-03-08T04:14:15;46.53;;;19.70;;
55114;SDS011;41010;53.252;5.786;2024-03-08T04:16:42;46.80;;;19.33;;
55114;SDS011;41010;53.252;5.786;2024-03-08T04:19:09;42.53;;;19.90;;
55114;SDS011;41010;53.252;5.786;2024-03-08T04:21:38;45.22;;;19.85;;
55114;SDS011;41010;53.252;5.786;2024-03-08T04:24:06;48.17;;;19.48;;
55114;SDS011;41010;53.252;5.786;2024-03-08T04:26:34;43.92;;;20.05;;
55114;SDS011;41010;53.252;5.786;2024-03-08T04:29:01;47.85;;;19.88;;
55114;SDS011;41010;53.252;5.786;2024-03-08T04:31:28;40.88;;;17.88;;
55114;SDS011;41010;53.252;5.786;2024-03-08T04:33:56;39.92;;;18.80;;
55114;SDS011;41010;53.252;5.786;2024-03-08T04:36:24;38.70;;;18.23;;
55114;SDS011;41010;53.252;5.786;2024-03-08T04:38:52;43.88;;;19.17;;
55114;SDS011;41010;53.252;5.786;2024-03-08T04:41:20;43.95;;;19.52;;
55114;SDS011;41010;53.252;5.786;2024-03-08T04:43:48;39.95;;;17.75;;
55114;SDS011;41010;53.252;5.786;2024-03-08T04:46:15;39.65;;;18.13;;
55114;SDS011;41010;53.252;5.786;2024-03-08T04:48:43;38.85;;;17.48;;
55114;SDS011;41010;53.252;5.786;2024-03-08T04:51:10;46.03;;;17.80;;
55114;SDS011;41010;53.252;5.786;2024-03-08T04:53:37;42.95;;;18.13;;
55114;SDS011;41010;53.252;5.786;2024-03-08T04:56:06;44.22;;;18.13;;
55114;SDS011;41010;53.252;5.786;2024-03-08T04:58:35;42.30;;;17.85;;
55114;SDS011;41010;53.252;5.786;2024-03-08T05:01:02;46.05;;;18.48;;
55114;SDS011;41010;53.252;5.786;2024-03-08T05:03:30;40.25;;;16.83;;
55114;SDS011;41010;53.252;5.786;2024-03-08T05:05:57;39.75;;;18.00;;
55114;SDS011;41010;53.252;5.786;2024-03-08T05:08:25;40.58;;;17.92;;
55114;SDS011;41010;53.252;5.786;2024-03-08T05:10:52;41.70;;;18.98;;
55114;SDS011;41010;53.252;5.786;2024-03-08T05:13:21;42.80;;;17.98;;
55114;SDS011;41010;53.252;5.786;2024-03-08T05:15:48;40.60;;;17.60;;
55114;SDS011;41010;53.252;5.786;2024-03-08T05:18:16;40.88;;;17.48;;
55114;SDS011;41010;53.252;5.786;2024-03-08T05:20:43;42.20;;;17.63;;
55114;SDS011;41010;53.252;5.786;2024-03-08T05:23:10;42.88;;;17.85;;
55114;SDS011;41010;53.252;5.786;2024-03-08T05:25:38;36.47;;;17.35;;
55114;SDS011;41010;53.252;5.786;2024-03-08T05:28:06;43.22;;;18.15;;
55114;SDS011;41010;53.252;5.786;2024-03-08T05:30:36;37.03;;;17.10;;
55114;SDS011;41010;53.252;5.786;2024-03-08T05:33:05;43.45;;;17.17;;
55114;SDS011;41010;53.252;5.786;2024-03-08T05:35:35;46.55;;;18.08;;
55114;SDS011;41010;53.252;5.786;2024-03-08T05:38:03;38.15;;;17.60;;
55114;SDS011;41010;53.252;5.786;2024-03-08T05:40:30;38.75;;;17.35;;
55114;SDS011;41010;53.252;5.786;2024-03-08T05:42:57;41.90;;;17.95;;
55114;SDS011;41010;53.252;5.786;2024-03-08T05:45:25;37.15;;;18.10;;
55114;SDS011;41010;53.252;5.786;2024-03-08T05:47:53;40.40;;;17.02;;
55114;SDS011;41010;53.252;5.786;2024-03-08T05:50:21;43.58;;;17.60;;
55114;SDS011;41010;53.252;5.786;2024-03-08T05:52:49;45.63;;;18.63;;
55114;SDS011;41010;53.252;5.786;2024-03-08T05:55:17;41.08;;;17.00;;
55114;SDS011;41010;53.252;5.786;2024-03-08T05:57:44;44.00;;;18.25;;
55114;SDS011;41010;53.252;5.786;2024-03-08T06:00:13;42.90;;;17.35;;
55114;SDS011;41010;53.252;5.786;2024-03-08T06:02:41;44.85;;;18.52;;
55114;SDS011;41010;53.252;5.786;2024-03-08T06:05:10;37.20;;;17.90;;
55114;SDS011;41010;53.252;5.786;2024-03-08T06:07:38;38.50;;;16.77;;
55114;SDS011;41010;53.252;5.786;2024-03-08T06:10:06;40.10;;;18.58;;
55114;SDS011;41010;53.252;5.786;2024-03-08T06:12:35;39.92;;;17.08;;
55114;SDS011;41010;53.252;5.786;2024-03-08T06:15:05;37.90;;;17.17;;
55114;SDS011;41010;53.252;5.786;2024-03-08T06:17:33;42.95;;;18.88;;
55114;SDS011;41010;53.252;5.786;2024-03-08T06:20:01;45.17;;;17.92;;
55114;SDS011;41010;53.252;5.786;2024-03-08T06:22:36;49.17;;;17.40;;
55114;SDS011;41010;53.252;5.786;2024-03-08T06:25:06;39.72;;;17.30;;
55114;SDS011;41010;53.252;5.786;2024-03-08T06:27:33;37.30;;;17.23;;
55114;SDS011;41010;53.252;5.786;2024-03-08T06:30:01;47.63;;;17.73;;
55114;SDS011;41010;53.252;5.786;2024-03-08T06:32:30;44.60;;;18.23;;
55114;SDS011;41010;53.252;5.786;2024-03-08T06:35:00;42.13;;;17.02;;
55114;SDS011;41010;53.252;5.786;2024-03-08T06:37:29;36.28;;;16.85;;
55114;SDS011;41010;53.252;5.786;2024-03-08T06:39:58;39.38;;;17.75;;
55114;SDS011;41010;53.252;5.786;2024-03-08T06:42:25;39.50;;;17.30;;
55114;SDS011;41010;53.252;5.786;2024-03-08T06:44:53;43.10;;;17.42;;
55114;SDS011;41010;53.252;5.786;2024-03-08T06:47:25;43.70;;;19.00;;
55114;SDS011;41010;53.252;5.786;2024-03-08T06:49:52;43.17;;;17.42;;
55114;SDS011;41010;53.252;5.786;2024-03-08T06:52:19;36.25;;;17.02;;
55114;SDS011;41010;53.252;5.786;2024-03-08T06:54:47;41.72;;;17.30;;
55114;SDS011;41010;53.252;5.786;2024-03-08T06:57:16;35.58;;;16.85;;
55114;SDS011;41010;53.252;5.786;2024-03-08T06:59:43;36.80;;;15.93;;
55114;SDS011;41010;53.252;5.786;2024-03-08T07:02:10;36.85;;;17.23;;
55114;SDS011;41010;53.252;5.786;2024-03-08T07:04:38;36.05;;;17.40;;
55114;SDS011;41010;53.252;5.786;2024-03-08T07:07:06;38.50;;;16.45;;
55114;SDS011;41010;53.252;5.786;2024-03-08T07:09:34;40.75;;;16.33;;
55114;SDS011;41010;53.252;5.786;2024-03-08T07:12:02;35.63;;;16.35;;
55114;SDS011;41010;53.252;5.786;2024-03-08T07:14:31;37.85;;;17.17;;
55114;SDS011;41010;53.252;5.786;2024-03-08T07:16:58;37.13;;;16.27;;
55114;SDS011;41010;53.252;5.786;2024-03-08T07:19:25;38.78;;;16.98;;
55114;SDS011;41010;53.252;5.786;2024-03-08T07:21:53;40.78;;;17.10;;
55114;SDS011;41010;53.252;5.786;2024-03-08T07:24:21;35.42;;;16.58;;
55114;SDS011;41010;53.252;5.786;2024-03-08T07:27:04;33.63;;;15.73;;
55114;SDS011;41010;53.252;5.786;2024-03-08T07:29:32;34.75;;;17.10;;
55114;SDS011;41010;53.252;5.786;2024-03-08T07:32:00;36.53;;;16.33;;
55114;SDS011;41010;53.252;5.786;2024-03-08T07:34:39;36.15;;;16.45;;
55114;SDS011;41010;53.252;5.786;2024-03-08T07:37:07;36.75;;;16.63;;
55114;SDS011;41010;53.252;5.786;2024-03-08T07:39:36;36.42;;;16.55;;
55114;SDS011;41010;53.252;5.786;2024-03-08T07:42:04;37.00;;;16.13;;
55114;SDS011;41010;53.252;5.786;2024-03-08T07:44:33;31.23;;;15.05;;
55114;SDS011;41010;53.252;5.786;2024-03-08T07:47:00;43.35;;;15.82;;
55114;SDS011;41010;53.252;5.786;2024-03-08T07:49:28;37.75;;;16.45;;
55114;SDS011;41010;53.252;5.786;2024-03-08T07:51:56;32.58;;;15.38;;
55114;SDS011;41010;53.252;5.786;2024-03-08T07:54:24;30.55;;;15.25;;
55114;SDS011;41010;53.252;5.786;2024-03-08T07:56:52;36.20;;;15.52;;
55114;SDS011;41010;53.252;5.786;2024-03-08T07:59:19;34.40;;;16.30;;
55114;SDS011;41010;53.252;5.786;2024-03-08T08:01:48;36.72;;;16.48;;
55114;SDS011;41010;53.252;5.786;2024-03-08T08:04:16;37.28;;;15.23;;
55114;SDS011;41010;53.252;5.786;2024-03-08T08:06:44;30.42;;;15.40;;
55114;SDS011;41010;53.252;5.786;2024-03-08T08:09:11;33.05;;;15.13;;
55114;SDS011;41010;53.252;5.786;2024-03-08T08:11:40;33.20;;;15.05;;
55114;SDS011;41010;53.252;5.786;2024-03-08T08:14:08;32.13;;;14.93;;
55114;SDS011;41010;53.252;5.786;2024-03-08T08:16:36;32.83;;;15.82;;
55114;SDS011;41010;53.252;5.786;2024-03-08T08:19:07;31.70;;;15.35;;
55114;SDS011;41010;53.252;5.786;2024-03-08T08:21:35;31.35;;;15.68;;
55114;SDS011;41010;53.252;5.786;2024-03-08T08:24:02;35.40;;;15.82;;
55114;SDS011;41010;53.252;5.786;2024-03-08T08:26:30;32.47;;;15.07;;
55114;SDS011;41010;53.252;5.786;2024-03-08T08:28:58;32.28;;;15.32;;
55114;SDS011;41010;53.252;5.786;2024-03-08T08:31:25;29.33;;;14.75;;
55114;SDS011;41010;53.252;5.786;2024-03-08T08:33:53;28.08;;;14.30;;
55114;SDS011;41010;53.252;5.786;2024-03-08T08:36:25;30.75;;;14.95;;
55114;SDS011;41010;53.252;5.786;2024-03-08T08:38:54;31.98;;;15.18;;
55114;SDS011;41010;53.252;5.786;2024-03-08T08:41:23;31.10;;;14.98;;
55114;SDS011;41010;53.252;5.786;2024-03-08T08:43:51;32.28;;;14.90;;
55114;SDS011;41010;53.252;5.786;2024-03-08T08:46:19;26.90;;;13.95;;
55114;SDS011;41010;53.252;5.786;2024-03-08T08:48:46;29.23;;;14.68;;
55114;SDS011;41010;53.252;5.786;2024-03-08T08:51:14;29.17;;;14.15;;
55114;SDS011;41010;53.252;5.786;2024-03-08T08:53:42;28.25;;;14.40;;
55114;SDS011;41010;53.252;5.786;2024-03-08T08:56:11;26.35;;;14.15;;
55114;SDS011;41010;53.252;5.786;2024-03-08T08:58:39;31.70;;;14.20;;
55114;SDS011;41010;53.252;5.786;2024-03-08T09:01:07;29.30;;;14.27;;
55114;SDS011;41010;53.252;5.786;2024-03-08T09:03:35;32.47;;;15.50;;
55114;SDS011;41010;53.252;5.786;2024-03-08T09:06:03;30.65;;;14.55;;
55114;SDS011;41010;53.252;5.786;2024-03-08T09:08:31;27.30;;;14.25;;
55114;SDS011;41010;53.252;5.786;2024-03-08T09:11:01;28.08;;;14.07;;
55114;SDS011;41010;53.252;5.786;2024-03-08T09:13:28;29.30;;;14.73;;
55114;SDS011;41010;53.252;5.786;2024-03-08T09:15:55;31.75;;;14.48;;
55114;SDS011;41010;53.252;5.786;2024-03-08T09:18:23;28.85;;;15.02;;
55114;SDS011;41010;53.252;5.786;2024-03-08T09:20:50;30.67;;;15.07;;
55114;SDS011;41010;53.252;5.786;2024-03-08T09:23:19;27.83;;;13.73;;
55114;SDS011;41010;53.252;5.786;2024-03-08T09:25:46;28.75;;;15.18;;
55114;SDS011;41010;53.252;5.786;2024-03-08T09:28:15;31.05;;;14.75;;
55114;SDS011;41010;53.252;5.786;2024-03-08T09:30:42;29.55;;;14.18;;
55114;SDS011;41010;53.252;5.786;2024-03-08T09:33:11;29.30;;;15.35;;
55114;SDS011;41010;53.252;5.786;2024-03-08T09:35:42;25.50;;;14.43;;
55114;SDS011;41010;53.252;5.786;2024-03-08T09:38:12;26.45;;;14.13;;
55114;SDS011;41010;53.252;5.786;2024-03-08T09:40:40;29.10;;;14.63;;
55114;SDS011;41010;53.252;5.786;2024-03-08T09:43:08;29.30;;;13.93;;
55114;SDS011;41010;53.252;5.786;2024-03-08T09:45:38;27.67;;;15.30;;
55114;SDS011;41010;53.252;5.786;2024-03-08T09:48:08;30.27;;;13.88;;
55114;SDS011;41010;53.252;5.786;2024-03-08T09:50:39;28.10;;;14.65;;
55114;SDS011;41010;53.252;5.786;2024-03-08T09:53:06;28.75;;;14.55;;
55114;SDS011;41010;53.252;5.786;2024-03-08T09:55:34;26.65;;;14.98;;
55114;SDS011;41010;53.252;5.786;2024-03-08T09:58:02;29.30;;;15.98;;
55114;SDS011;41010;53.252;5.786;2024-03-08T10:00:51;27.67;;;14.25;;
55114;SDS011;41010;53.252;5.786;2024-03-08T10:03:19;28.75;;;14.80;;
55114;SDS011;41010;53.252;5.786;2024-03-08T10:05:47;28.42;;;14.70;;
55114;SDS011;41010;53.252;5.786;2024-03-08T10:08:14;29.40;;;15.18;;
55114;SDS011;41010;53.252;5.786;2024-03-08T10:10:42;29.10;;;15.32;;
55114;SDS011;41010;53.252;5.786;2024-03-08T10:13:09;27.52;;;14.65;;
55114;SDS011;41010;53.252;5.786;2024-03-08T10:15:39;27.58;;;14.90;;
55114;SDS011;41010;53.252;5.786;2024-03-08T10:18:08;29.23;;;14.68;;
55114;SDS011;41010;53.252;5.786;2024-03-08T10:20:35;23.70;;;13.48;;
55114;SDS011;41010;53.252;5.786;2024-03-08T10:23:03;27.88;;;14.60;;
55114;SDS011;41010;53.252;5.786;2024-03-08T10:25:30;26.95;;;14.35;;
55114;SDS011;41010;53.252;5.786;2024-03-08T10:27:58;25.10;;;13.80;;
55114;SDS011;41010;53.252;5.786;2024-03-08T10:30:25;24.95;;;13.90;;
55114;SDS011;41010;53.252;5.786;2024-03-08T10:32:53;30.73;;;14.23;;
55114;SDS011;41010;53.252;5.786;2024-03-08T10:35:21;26.20;;;13.50;;
55114;SDS011;41010;53.252;5.786;2024-03-08T10:37:50;25.25;;;14.60;;
55114;SDS011;41010;53.252;5.786;2024-03-08T10:40:25;24.83;;;14.55;;
55114;SDS011;41010;53.252;5.786;2024-03-08T10:42:53;23.80;;;14.50;;
55114;SDS011;41010;53.252;5.786;2024-03-08T10:45:23;24.30;;;13.63;;
55114;SDS011;41010;53.252;5.786;2024-03-08T10:47:57;31.33;;;13.80;;
55114;SDS011;41010;53.252;5.786;2024-03-08T10:50:28;24.08;;;13.80;;
55114;SDS011;41010;53.252;5.786;2024-03-08T10:52:56;25.08;;;13.38;;
55114;SDS011;41010;53.252;5.786;2024-03-08T10:55:26;25.30;;;14.25;;
55114;SDS011;41010;53.252;5.786;2024-03-08T10:57:55;25.20;;;14.02;;
55114;SDS011;41010;53.252;5.786;2024-03-08T11:00:22;26.63;;;14.52;;
55114;SDS011;41010;53.252;5.786;2024-03-08T11:02:51;27.90;;;14.98;;
55114;SDS011;41010;53.252;5.786;2024-03-08T11:05:32;25.88;;;15.32;;
55114;SDS011;41010;53.252;5.786;2024-03-08T11:08:05;27.13;;;15.13;;
55114;SDS011;41010;53.252;5.786;2024-03-08T11:10:33;29.63;;;15.48;;
55114;SDS011;41010;53.252;5.786;2024-03-08T11:13:01;33.63;;;15.45;;
55114;SDS011;41010;53.252;5.786;2024-03-08T11:15:28;24.90;;;15.40;;
55114;SDS011;41010;53.252;5.786;2024-03-08T11:17:58;27.55;;;16.38;;
55114;SDS011;41010;53.252;5.786;2024-03-08T11:20:25;27.40;;;14.32;;
55114;SDS011;41010;53.252;5.786;2024-03-08T11:22:54;26.23;;;15.13;;
55114;SDS011;41010;53.252;5.786;2024-03-08T11:25:35;26.60;;;15.07;;
55114;SDS011;41010;53.252;5.786;2024-03-08T11:28:06;25.80;;;14.93;;
55114;SDS011;41010;53.252;5.786;2024-03-08T11:30:34;26.65;;;15.27;;
55114;SDS011;41010;53.252;5.786;2024-03-08T11:33:03;23.80;;;14.70;;
55114;SDS011;41010;53.252;5.786;2024-03-08T11:35:30;26.15;;;14.85;;
55114;SDS011;41010;53.252;5.786;2024-03-08T11:37:59;28.52;;;14.05;;
55114;SDS011;41010;53.252;5.786;2024-03-08T11:40:26;26.83;;;15.10;;
55114;SDS011;41010;53.252;5.786;2024-03-08T11:42:54;25.48;;;14.68;;
55114;SDS011;41010;53.252;5.786;2024-03-08T11:45:21;26.50;;;14.80;;
55114;SDS011;41010;53.252;5.786;2024-03-08T11:47:49;26.15;;;14.77;;
55114;SDS011;41010;53.252;5.786;2024-03-08T11:50:17;24.20;;;14.90;;
55114;SDS011;41010;53.252;5.786;2024-03-08T11:52:46;24.90;;;15.32;;
55114;SDS011;41010;53.252;5.786;2024-03-08T11:55:15;23.70;;;14.77;;
55114;SDS011;41010;53.252;5.786;2024-03-08T11:57:44;25.75;;;15.20;;
55114;SDS011;41010;53.252;5.786;2024-03-08T12:00:14;23.90;;;15.07;;
55114;SDS011;41010;53.252;5.786;2024-03-08T12:03:00;24.77;;;15.25;;
55114;SDS011;41010;53.252;5.786;2024-03-08T12:05:28;25.90;;;15.27;;
55114;SDS011;41010;53.252;5.786;2024-03-08T12:07:56;24.73;;;15.30;;
55114;SDS011;41010;53.252;5.786;2024-03-08T12:10:25;22.88;;;14.40;;
55114;SDS011;41010;53.252;5.786;2024-03-08T12:12:53;22.58;;;14.48;;
55114;SDS011;41010;53.252;5.786;2024-03-08T12:15:22;25.25;;;13.82;;
55114;SDS011;41010;53.252;5.786;2024-03-08T12:17:50;21.00;;;14.27;;
55114;SDS011;41010;53.252;5.786;2024-03-08T12:20:17;24.80;;;14.95;;
55114;SDS011;41010;53.252;5.786;2024-03-08T12:22:46;23.77;;;14.82;;
55114;SDS011;41010;53.252;5.786;2024-03-08T12:25:14;23.35;;;14.50;;
55114;SDS011;41010;53.252;5.786;2024-03-08T12:27:43;24.80;;;14.52;;
55114;SDS011;41010;53.252;5.786;2024-03-08T12:30:21;22.45;;;14.68;;
55114;SDS011;41010;53.252;5.786;2024-03-08T12:32:53;20.08;;;13.73;;
55114;SDS011;41010;53.252;5.786;2024-03-08T12:35:22;23.92;;;14.95;;
55114;SDS011;41010;53.252;5.786;2024-03-08T12:37:50;23.77;;;14.93;;
55114;SDS011;41010;53.252;5.786;2024-03-08T12:40:19;22.35;;;14.05;;
55114;SDS011;41010;53.252;5.786;2024-03-08T12:42:48;25.35;;;14.82;;
55114;SDS011;41010;53.252;5.786;2024-03-08T12:45:15;25.77;;;14.15;;
55114;SDS011;41010;53.252;5.786;2024-03-08T12:47:42;22.70;;;15.23;;
55114;SDS011;41010;53.252;5.786;2024-03-08T12:50:10;24.10;;;14.45;;
55114;SDS011;41010;53.252;5.786;2024-03-08T12:52:38;25.05;;;15.90;;
55114;SDS011;41010;53.252;5.786;2024-03-08T12:55:06;24.45;;;14.38;;
55114;SDS011;41010;53.252;5.786;2024-03-08T12:57:34;23.15;;;14.85;;
55114;SDS011;41010;53.252;5.786;2024-03-08T13:00:04;23.02;;;15.80;;
55114;SDS011;41010;53.252;5.786;2024-03-08T13:02:38;23.67;;;14.95;;
55114;SDS011;41010;53.252;5.786;2024-03-08T13:05:05;20.73;;;14.48;;
55114;SDS011;41010;53.252;5.786;2024-03-08T13:07:35;21.77;;;14.50;;
55114;SDS011;41010;53.252;5.786;2024-03-08T13:10:03;24.75;;;14.93;;
55114;SDS011;41010;53.252;5.786;2024-03-08T13:12:32;25.23;;;16.08;;
55114;SDS011;41010;53.252;5.786;2024-03-08T13:15:05;21.27;;;14.63;;
55114;SDS011;41010;53.252;5.786;2024-03-08T13:17:34;26.73;;;15.45;;
55114;SDS011;41010;53.252;5.786;2024-03-08T13:20:01;25.13;;;15.68;;
55114;SDS011;41010;53.252;5.786;2024-03-08T13:22:30;22.65;;;15.68;;
55114;SDS011;41010;53.252;5.786;2024-03-08T13:24:57;23.65;;;15.10;;
55114;SDS011;41010;53.252;5.786;2024-03-08T13:27:26;23.27;;;15.40;;
55114;SDS011;41010;53.252;5.786;2024-03-08T13:29:53;23.05;;;14.23;;
55114;SDS011;41010;53.252;5.786;2024-03-08T13:32:22;23.67;;;14.73;;
55114;SDS011;41010;53.252;5.786;2024-03-08T13:34:50;20.23;;;14.50;;
55114;SDS011;41010;53.252;5.786;2024-03-08T13:37:19;24.77;;;15.85;;
55114;SDS011;41010;53.252;5.786;2024-03-08T13:39:46;22.77;;;15.02;;
55114;SDS011;41010;53.252;5.786;2024-03-08T13:42:14;22.00;;;14.88;;
55114;SDS011;41010;53.252;5.786;2024-03-08T13:44:45;26.55;;;15.27;;
55114;SDS011;41010;53.252;5.786;2024-03-08T13:47:12;23.48;;;15.13;;
55114;SDS011;41010;53.252;5.786;2024-03-08T13:49:41;22.20;;;14.07;;
55114;SDS011;41010;53.252;5.786;2024-03-08T13:52:08;21.88;;;13.95;;
55114;SDS011;41010;53.252;5.786;2024-03-08T13:54:37;21.73;;;14.98;;
55114;SDS011;41010;53.252;5.786;2024-03-08T13:57:05;22.27;;;15.02;;
55114;SDS011;41010;53.252;5.786;2024-03-08T13:59:32;21.27;;;14.98;;
55114;SDS011;41010;53.252;5.786;2024-03-08T14:02:00;22.10;;;14.65;;
55114;SDS011;41010;53.252;5.786;2024-03-08T14:04:28;21.10;;;14.85;;
55114;SDS011;41010;53.252;5.786;2024-03-08T14:06:56;22.48;;;14.40;;
55114;SDS011;41010;53.252;5.786;2024-03-08T14:11:56;23.33;;;14.75;;
55114;SDS011;41010;53.252;5.786;2024-03-08T14:14:24;25.48;;;15.25;;
55114;SDS011;41010;53.252;5.786;2024-03-08T14:16:51;19.50;;;13.82;;
55114;SDS011;41010;53.252;5.786;2024-03-08T14:19:20;18.48;;;14.05;;
55114;SDS011;41010;53.252;5.786;2024-03-08T14:21:47;20.73;;;14.30;;
55114;SDS011;41010;53.252;5.786;2024-03-08T14:24:18;19.33;;;13.88;;
55114;SDS011;41010;53.252;5.786;2024-03-08T14:26:45;21.23;;;13.82;;
55114;SDS011;41010;53.252;5.786;2024-03-08T14:29:14;21.23;;;14.52;;
55114;SDS011;41010;53.252;5.786;2024-03-08T14:31:43;20.65;;;13.63;;
55114;SDS011;41010;53.252;5.786;2024-03-08T14:34:10;20.08;;;13.23;;